Time;durP1;ratioP1;P1;durP2;ratioP2;P2;SDS_P1;SDS_P2;PMS_P1;PMS_P2;Temp;Humidity;BMP_temperature;BMP_pressure;BME280_temperature;BME280_humidity;BME280_pressure;Samples;Min_cycle;Max_cycle;Signal;HPM_P1;HPM_P2
2023/04/27 00:01:20;;;;;;;10.73;2.17;;;2.10;97.30;;;;;;4985828;28;20200;-82
2023/04/27 00:03:46;;;;;;;2.80;2.60;;;2.00;97.30;;;;;;4994567;28;20178;-81
2023/04/27 00:06:11;;;;;;;14.57;2.70;;;2.00;97.30;;;;;;4974002;28;20182;-80
2023/04/27 00:08:37;;;;;;;2.40;2.20;;;2.00;97.30;;;;;;4993688;28;20216;-81
2023/04/27 00:11:03;;;;;;;2.37;2.20;;;1.90;97.30;;;;;;4984425;28;20178;-81
2023/04/27 00:13:28;;;;;;;2.70;2.50;;;1.90;97.30;;;;;;4994533;28;20197;-83
2023/04/27 00:15:54;;;;;;;2.63;2.43;;;1.90;97.30;;;;;;4970571;28;20174;-80
2023/04/27 00:18:20;;;;;;;1.83;1.73;;;1.80;97.30;;;;;;4991412;28;20544;-84
2023/04/27 00:20:45;;;;;;;2.60;2.40;;;1.80;97.30;;;;;;4976005;28;20186;-81
2023/04/27 00:23:11;;;;;;;3.50;3.30;;;1.80;97.30;;;;;;4995152;28;20186;-82
2023/04/27 00:25:36;;;;;;;2.07;1.93;;;1.80;97.30;;;;;;5004675;28;20225;-80
2023/04/27 00:28:02;;;;;;;1.67;1.57;;;1.80;97.30;;;;;;4995600;28;20182;-81
2023/04/27 00:30:28;;;;;;;2.17;2.00;;;1.80;97.30;;;;;;5007983;28;20181;-81
2023/04/27 00:32:53;;;;;;;2.27;2.10;;;1.70;97.30;;;;;;4992326;28;20205;-84
2023/04/27 00:35:19;;;;;;;4.30;4.03;;;1.70;97.30;;;;;;5000342;28;20595;-83
2023/04/27 00:37:44;;;;;;;3.70;2.67;;;1.70;97.30;;;;;;4994786;28;20208;-81
2023/04/27 00:40:10;;;;;;;1.83;1.60;;;1.60;97.30;;;;;;4984050;28;20189;-85
2023/04/27 00:42:36;;;;;;;2.00;1.90;;;1.60;97.30;;;;;;4998685;28;20193;-85
2023/04/27 00:45:02;;;;;;;3.83;2.50;;;1.60;97.30;;;;;;4982795;28;20489;-83
2023/04/27 00:47:30;;;;;;;19.30;2.37;;;;;;;;;;5005344;28;20181;-83
2023/04/27 00:49:56;;;;;;;16.33;2.10;;;1.60;97.30;;;;;;4998728;28;20424;-83
2023/04/27 00:52:21;;;;;;;3.73;3.53;;;1.60;97.30;;;;;;4999931;28;20496;-82
2023/04/27 00:54:51;;;;;;;5.77;2.90;;;1.60;97.30;;;;;;4975305;28;20691;-80
2023/04/27 00:57:17;;;;;;;2.60;2.40;;;1.50;97.30;;;;;;4994059;28;20498;-80
2023/04/27 00:59:42;;;;;;;1.50;1.40;;;1.50;97.30;;;;;;4998306;28;20470;-83
2023/04/27 01:02:09;;;;;;;2.97;1.97;;;1.40;97.30;;;;;;4992905;28;20445;-82
2023/04/27 01:04:35;;;;;;;9.10;2.73;;;1.40;97.30;;;;;;5002429;28;20190;-81
2023/04/27 01:07:01;;;;;;;1.87;1.77;;;1.30;97.30;;;;;;4988991;28;20429;-82
2023/04/27 01:09:27;;;;;;;1.50;1.40;;;1.30;97.30;;;;;;4981506;28;20433;-81
2023/04/27 01:11:52;;;;;;;2.93;2.60;;;1.30;97.30;;;;;;5000862;28;20524;-84
2023/04/27 01:14:18;;;;;;;2.20;2.00;;;1.30;97.30;;;;;;4977019;28;20627;-83
2023/04/27 01:16:45;;;;;;;1.90;1.83;;;1.30;97.30;;;;;;5001883;28;20178;-85
2023/04/27 01:19:11;;;;;;;2.10;1.30;;;1.30;97.30;;;;;;5001949;28;20677;-81
2023/04/27 01:21:39;;;;;;;5.07;3.63;;;;;;;;;;5003806;28;20440;-83
2023/04/27 01:24:06;;;;;;;7.70;3.23;;;1.40;97.30;;;;;;4984748;28;20561;-81
2023/04/27 01:26:31;;;;;;;1.47;1.43;;;1.30;97.30;;;;;;4985947;28;20425;-84
2023/04/27 01:28:57;;;;;;;1.60;1.50;;;1.30;97.30;;;;;;4980405;28;20477;-85
2023/04/27 01:31:23;;;;;;;2.23;2.03;;;1.30;97.30;;;;;;5001255;28;20614;-81
2023/04/27 01:33:48;;;;;;;6.07;2.30;;;1.20;97.30;;;;;;4990911;28;20746;-85
2023/04/27 01:36:14;;;;;;;1.90;1.80;;;1.20;97.30;;;;;;4986349;28;20177;-82
2023/04/27 01:38:39;;;;;;;3.23;3.03;;;1.10;97.30;;;;;;5002187;28;20177;-82
2023/04/27 01:41:07;;;;;;;2.90;1.67;;;1.10;97.30;;;;;;4996726;28;20226;-86
2023/04/27 01:43:33;;;;;;;2.43;2.23;;;1.10;97.30;;;;;;4988457;28;20521;-82
2023/04/27 01:46:10;;;;;;;3.33;3.13;;;1.10;97.30;;;;;;4976184;28;20516;-84
2023/04/27 01:48:37;;;;;;;2.57;2.37;;;1.10;97.30;;;;;;4957328;28;20480;-85
2023/04/27 01:51:02;;;;;;;2.60;2.40;;;1.10;97.30;;;;;;4990911;28;20417;-81
2023/04/27 01:53:28;;;;;;;2.50;2.03;;;1.10;97.30;;;;;;4986558;28;20587;-81
2023/04/27 01:55:54;;;;;;;5.10;2.97;;;1.10;97.30;;;;;;4985951;28;20659;-82
2023/04/27 01:58:19;;;;;;;2.43;2.23;;;1.00;97.30;;;;;;4976418;28;20236;-81
2023/04/27 02:00:45;;;;;;;2.93;2.73;;;1.00;97.30;;;;;;5000180;28;20235;-81
2023/04/27 02:03:10;;;;;;;6.43;2.90;;;1.00;97.30;;;;;;4972589;28;20216;-85
2023/04/27 02:05:37;;;;;;;4.17;3.93;;;0.90;97.30;;;;;;4983072;28;20189;-82
2023/04/27 02:08:03;;;;;;;4.17;3.27;;;0.90;97.30;;;;;;4985502;28;20181;-81
2023/04/27 02:10:28;;;;;;;3.20;2.40;;;0.90;97.30;;;;;;4980812;28;20417;-84
2023/04/27 02:12:54;;;;;;;2.40;2.20;;;0.90;97.30;;;;;;4995531;28;20234;-81
2023/04/27 02:15:19;;;;;;;2.03;1.63;;;0.90;97.30;;;;;;4996470;28;20572;-81
2023/04/27 02:17:45;;;;;;;1.97;1.87;;;0.80;97.30;;;;;;4992920;28;20186;-83
2023/04/27 02:20:11;;;;;;;1.90;1.80;;;0.80;97.30;;;;;;4998107;28;20182;-81
2023/04/27 02:22:41;;;;;;;2.43;2.23;;;0.80;97.30;;;;;;4998914;28;20525;-83
2023/04/27 02:25:07;;;;;;;4.13;2.90;;;0.70;97.30;;;;;;4981331;28;20188;-83
2023/04/27 02:27:35;;;;;;;1.70;1.60;;;0.70;97.30;;;;;;4994667;28;20504;-81
2023/04/27 02:30:07;;;;;;;2.60;2.40;;;0.70;97.30;;;;;;4970678;28;20432;-82
2023/04/27 02:32:32;;;;;;;2.33;2.13;;;0.70;97.30;;;;;;4998422;28;20474;-84
2023/04/27 02:34:58;;;;;;;1.53;1.43;;;0.70;97.30;;;;;;4995627;28;20487;-83
2023/04/27 02:37:24;;;;;;;2.07;1.93;;;0.70;97.30;;;;;;4987824;28;20212;-82
2023/04/27 02:39:49;;;;;;;2.70;2.50;;;0.60;97.30;;;;;;4996083;28;20917;-82
2023/04/27 02:42:15;;;;;;;4.97;2.23;;;0.60;97.30;;;;;;4981768;28;20201;-81
2023/04/27 02:44:41;;;;;;;2.03;1.90;;;0.60;97.30;;;;;;5003384;28;20604;-82
2023/04/27 02:47:06;;;;;;;3.00;1.80;;;0.60;97.30;;;;;;4994439;28;20196;-85
2023/04/27 02:49:32;;;;;;;3.33;2.97;;;0.60;97.30;;;;;;4994236;28;20196;-82
2023/04/27 02:51:57;;;;;;;1.47;1.40;;;0.60;97.30;;;;;;4977312;28;20236;-81
2023/04/27 02:54:23;;;;;;;2.97;2.77;;;0.50;97.30;;;;;;5001236;28;20217;-81
2023/04/27 02:56:48;;;;;;;1.70;1.60;;;0.50;97.30;;;;;;4978116;28;20611;-82
2023/04/27 02:59:14;;;;;;;4.83;2.87;;;0.50;97.30;;;;;;4999817;28;20643;-82
2023/04/27 03:01:39;;;;;;;1.77;1.67;;;0.50;97.30;;;;;;4999848;28;20245;-81
2023/04/27 03:04:05;;;;;;;17.50;3.27;;;0.50;97.30;;;;;;4993221;28;20245;-80
2023/04/27 03:06:30;;;;;;;1.80;1.40;;;0.50;97.30;;;;;;4979450;28;20605;-86
2023/04/27 03:08:56;;;;;;;2.13;1.93;;;0.50;97.30;;;;;;4999675;28;20208;-84
2023/04/27 03:11:21;;;;;;;3.77;2.90;;;0.50;97.30;;;;;;4994489;28;20204;-83
2023/04/27 03:13:47;;;;;;;13.13;2.40;;;0.50;97.30;;;;;;4973583;28;20618;-84
2023/04/27 03:16:12;;;;;;;2.60;2.50;;;0.50;97.30;;;;;;4997918;28;20173;-83
2023/04/27 03:18:38;;;;;;;1.50;1.40;;;0.50;97.30;;;;;;4994804;28;20181;-81
2023/04/27 03:21:11;;;;;;;3.23;3.07;;;0.50;97.30;;;;;;4985529;28;20278;-81
2023/04/27 03:23:37;;;;;;;4.97;3.00;;;0.50;97.30;;;;;;4988014;28;20421;-80
2023/04/27 03:26:11;;;;;;;3.07;2.27;;;0.50;97.30;;;;;;4992942;28;20564;-85
2023/04/27 03:28:37;;;;;;;2.53;2.33;;;0.50;97.30;;;;;;4988308;28;20959;-81
2023/04/27 03:31:11;;;;;;;1.97;1.87;;;0.50;97.30;;;;;;4997146;28;20429;-78
2023/04/27 03:33:37;;;;;;;1.53;1.43;;;0.50;97.30;;;;;;4984970;28;20474;-82
2023/04/27 03:36:04;;;;;;;1.40;1.30;;;0.50;97.30;;;;;;5000301;28;20410;-81
2023/04/27 03:38:30;;;;;;;1.77;1.67;;;0.50;97.30;;;;;;4976305;28;20972;-82
2023/04/27 03:40:56;;;;;;;2.20;1.70;;;0.50;97.30;;;;;;4970355;28;20416;-85
2023/04/27 03:43:22;;;;;;;2.70;2.50;;;0.50;97.30;;;;;;4987056;28;20421;-84
2023/04/27 03:45:48;;;;;;;1.60;1.50;;;0.50;97.30;;;;;;4981284;28;20181;-85
2023/04/27 03:48:15;;;;;;;2.13;1.97;;;0.40;97.30;;;;;;4976082;28;20437;-86
2023/04/27 03:50:41;;;;;;;1.37;1.27;;;0.40;97.30;;;;;;4995183;28;20188;-82
2023/04/27 03:53:07;;;;;;;2.97;1.50;;;0.40;97.30;;;;;;4999503;28;20543;-84
2023/04/27 03:55:32;;;;;;;2.00;1.90;;;0.40;97.30;;;;;;4974079;28;20493;-79
2023/04/27 03:57:58;;;;;;;2.30;1.50;;;0.40;97.30;;;;;;4994255;28;20208;-86
2023/04/27 04:00:23;;;;;;;2.13;1.97;;;0.40;97.30;;;;;;4997355;28;20245;-80
2023/04/27 04:02:50;;;;;;;3.03;2.60;;;0.40;97.30;;;;;;4977001;28;20657;-83
2023/04/27 04:05:17;;;;;;;1.43;1.33;;;0.40;97.30;;;;;;4979262;28;20177;-85
2023/04/27 04:07:42;;;;;;;3.00;2.03;;;0.40;97.30;;;;;;4988809;28;20485;-84
2023/04/27 04:10:09;;;;;;;3.17;2.97;;;0.50;97.30;;;;;;4988710;28;20886;-81
2023/04/27 04:12:34;;;;;;;2.77;2.63;;;0.50;97.30;;;;;;4986432;28;20208;-81
2023/04/27 04:15:00;;;;;;;1.63;1.53;;;0.50;97.30;;;;;;4983483;28;20519;-84
2023/04/27 04:17:26;;;;;;;2.70;2.50;;;0.50;97.30;;;;;;4978579;28;20584;-84
2023/04/27 04:19:51;;;;;;;1.67;1.57;;;0.60;97.30;;;;;;4993678;28;20192;-85
2023/04/27 04:22:17;;;;;;;1.60;1.50;;;0.60;97.30;;;;;;4992256;28;20200;-88
2023/04/27 04:24:43;;;;;;;2.43;2.23;;;0.60;97.30;;;;;;4988086;28;20184;-80
2023/04/27 04:27:08;;;;;;;3.07;2.93;;;0.60;97.30;;;;;;4981819;28;20196;-81
2023/04/27 04:29:34;;;;;;;2.97;2.80;;;0.70;97.30;;;;;;5003730;28;20206;-81
2023/04/27 04:31:59;;;;;;;2.20;2.00;;;0.70;97.30;;;;;;4974853;28;20206;-81
2023/04/27 04:34:26;;;;;;;4.00;3.80;;;0.70;97.30;;;;;;4988829;28;20264;-80
2023/04/27 04:36:51;;;;;;;2.27;2.07;;;0.80;97.30;;;;;;4975972;28;20280;-80
2023/04/27 04:39:21;;;;;;;2.67;2.47;;;0.80;97.30;;;;;;4965994;28;20501;-85
2023/04/27 04:41:48;;;;;;;7.63;2.60;;;0.80;97.30;;;;;;4974495;28;20210;-82
2023/04/27 04:44:14;;;;;;;1.57;1.47;;;0.90;97.30;;;;;;4987039;28;20433;-84
2023/04/27 04:46:40;;;;;;;4.57;4.27;;;1.00;97.30;;;;;;4980623;28;20432;-85
2023/04/27 04:49:06;;;;;;;2.60;2.40;;;1.10;97.30;;;;;;4979262;28;20803;-83
2023/04/27 04:51:32;;;;;;;6.73;2.80;;;1.20;97.30;;;;;;4975960;28;20472;-80
2023/04/27 04:53:58;;;;;;;2.33;2.13;;;1.30;97.30;;;;;;4999982;28;20469;-81
2023/04/27 04:56:23;;;;;;;5.33;2.60;;;1.40;97.30;;;;;;4993527;28;20189;-81
2023/04/27 04:58:49;;;;;;;1.37;1.27;;;1.50;97.30;;;;;;5000543;28;20224;-83
2023/04/27 05:01:14;;;;;;;2.77;1.63;;;1.50;97.30;;;;;;4999556;28;20275;-84
2023/04/27 05:03:40;;;;;;;2.80;2.60;;;1.70;97.30;;;;;;4977257;28;20239;-82
2023/04/27 05:06:05;;;;;;;2.97;2.80;;;1.70;97.30;;;;;;4990752;28;20253;-81
2023/04/27 05:08:31;;;;;;;2.80;2.60;;;1.90;97.30;;;;;;4988480;28;20196;-80
2023/04/27 05:10:57;;;;;;;3.37;2.93;;;2.00;97.30;;;;;;4983949;28;20190;-79
2023/04/27 05:13:23;;;;;;;3.17;3.00;;;2.10;97.30;;;;;;4974483;28;20241;-81
2023/04/27 05:15:49;;;;;;;6.00;5.20;;;2.20;97.30;;;;;;4991153;28;20571;-80
2023/04/27 05:18:15;;;;;;;3.23;2.10;;;2.30;97.30;;;;;;4989568;28;20425;-80
2023/04/27 05:20:40;;;;;;;2.27;1.80;;;2.40;97.30;;;;;;4997893;28;20423;-80
2023/04/27 05:23:06;;;;;;;3.20;3.00;;;2.50;97.30;;;;;;4979126;28;20220;-81
2023/04/27 05:25:32;;;;;;;4.83;4.53;;;2.60;97.30;;;;;;4995524;28;20197;-79
2023/04/27 05:27:58;;;;;;;5.93;3.17;;;2.70;97.30;;;;;;4976428;28;20189;-81
2023/04/27 05:30:24;;;;;;;3.27;1.87;;;2.70;97.30;;;;;;4975833;28;20429;-79
2023/04/27 05:32:49;;;;;;;3.23;3.03;;;2.80;97.30;;;;;;4987927;28;20197;-81
2023/04/27 05:35:15;;;;;;;5.30;5.00;;;2.90;97.30;;;;;;4998443;28;20193;-84
2023/04/27 05:37:40;;;;;;;2.70;2.40;;;3.00;97.30;;;;;;4994241;28;20182;-82
2023/04/27 05:40:09;;;;;;;6.43;3.47;;;3.10;97.30;;;;;;4989924;28;20186;-81
2023/04/27 05:42:35;;;;;;;2.80;2.57;;;3.20;97.30;;;;;;4968024;28;20257;-85
2023/04/27 05:45:02;;;;;;;13.97;2.37;;;3.30;97.30;;;;;;4989359;28;20961;-84
2023/04/27 05:47:27;;;;;;;14.97;3.20;;;3.40;97.30;;;;;;4971918;28;20504;-85
2023/04/27 05:49:53;;;;;;;3.63;3.07;;;3.50;97.30;;;;;;4987962;28;20566;-84
2023/04/27 05:52:19;;;;;;;5.17;3.30;;;3.50;97.30;;;;;;4976985;28;20279;-84
2023/04/27 05:54:49;;;;;;;16.63;4.40;;;3.60;97.30;;;;;;4974465;28;20205;-84
2023/04/27 05:57:15;;;;;;;4.10;3.37;;;3.70;97.30;;;;;;4995723;28;20417;-85
2023/04/27 05:59:41;;;;;;;4.67;2.50;;;3.80;97.30;;;;;;4987937;28;20413;-84
2023/04/27 06:02:07;;;;;;;3.40;3.10;;;3.90;97.30;;;;;;4996085;28;20494;-84
2023/04/27 06:04:33;;;;;;;2.97;2.83;;;3.90;97.30;;;;;;4993573;28;20945;-84
2023/04/27 06:06:59;;;;;;;9.73;3.27;;;4.00;97.30;;;;;;4995052;28;20416;-84
2023/04/27 06:09:25;;;;;;;2.67;2.47;;;4.10;97.30;;;;;;4993556;28;20201;-84
2023/04/27 06:11:50;;;;;;;3.27;2.50;;;4.20;97.30;;;;;;4977205;28;20402;-84
2023/04/27 06:14:16;;;;;;;4.43;3.53;;;4.30;97.30;;;;;;4994418;28;20456;-84
2023/04/27 06:16:42;;;;;;;10.67;2.60;;;4.30;97.30;;;;;;4985430;28;20232;-84
2023/04/27 06:19:07;;;;;;;3.67;3.47;;;4.40;97.30;;;;;;4977257;28;20420;-84
2023/04/27 06:21:34;;;;;;;3.10;2.80;;;4.50;97.30;;;;;;4994887;28;20277;-84
2023/04/27 06:24:00;;;;;;;3.80;3.00;;;4.50;97.30;;;;;;4977134;28;20280;-84
2023/04/27 06:26:27;;;;;;;4.60;4.40;;;4.60;97.30;;;;;;4977324;28;20492;-84
2023/04/27 06:28:53;;;;;;;3.80;2.30;;;4.70;97.30;;;;;;4976559;28;20439;-84
2023/04/27 06:31:18;;;;;;;17.13;3.67;;;4.90;97.30;;;;;;4994573;28;20559;-84
2023/04/27 06:33:44;;;;;;;2.60;2.40;;;5.00;97.30;;;;;;4978854;28;20524;-84
2023/04/27 06:36:10;;;;;;;3.83;2.93;;;5.10;97.30;;;;;;4979752;28;20245;-86
2023/04/27 06:38:35;;;;;;;2.87;2.67;;;5.20;97.30;;;;;;4988518;28;20431;-84
2023/04/27 06:41:07;;;;;;;8.43;3.43;;;5.40;97.30;;;;;;4996449;28;20204;-84
2023/04/27 06:43:32;;;;;;;7.53;4.47;;;5.50;97.30;;;;;;4992532;28;20185;-84
2023/04/27 06:45:58;;;;;;;2.53;2.43;;;5.60;97.30;;;;;;4978747;28;20443;-84
2023/04/27 06:48:23;;;;;;;2.37;1.50;;;5.90;97.30;;;;;;4974552;28;20197;-84
2023/04/27 06:50:49;;;;;;;13.03;3.30;;;6.10;97.30;;;;;;4992661;28;20245;-84
2023/04/27 06:53:16;;;;;;;3.53;2.13;;;6.30;97.30;;;;;;4993183;28;20260;-84
2023/04/27 06:55:42;;;;;;;2.30;1.93;;;6.50;97.30;;;;;;4976727;28;20443;-84
2023/04/27 06:58:07;;;;;;;5.33;3.57;;;6.70;97.30;;;;;;4992802;28;20925;-84
2023/04/27 07:00:33;;;;;;;3.63;1.93;;;6.90;97.30;;;;;;4992386;28;20248;-84
2023/04/27 07:02:58;;;;;;;13.33;3.00;;;7.10;97.30;;;;;;4987301;28;20234;-85
2023/04/27 07:05:24;;;;;;;5.80;3.30;;;7.20;97.30;;;;;;4989125;28;20216;-84
2023/04/27 07:07:50;;;;;;;4.00;2.30;;;7.40;97.30;;;;;;4992995;28;20182;-84
2023/04/27 07:10:16;;;;;;;8.23;2.87;;;7.50;97.30;;;;;;4993892;28;20433;-85
2023/04/27 07:12:41;;;;;;;1.40;1.30;;;7.60;97.10;;;;;;4976305;28;20209;-85
2023/04/27 07:15:08;;;;;;;4.83;2.50;;;7.70;97.20;;;;;;4992708;28;20192;-84
2023/04/27 07:17:33;;;;;;;1.70;1.60;;;7.80;96.90;;;;;;4993964;28;20607;-84
2023/04/27 07:20:00;;;;;;;2.60;1.97;;;7.90;96.90;;;;;;4992734;28;20448;-84
2023/04/27 07:22:25;;;;;;;3.30;2.50;;;7.90;96.40;;;;;;4993923;28;20601;-85
2023/04/27 07:24:51;;;;;;;5.00;2.43;;;8.00;96.30;;;;;;4993540;28;20421;-85
2023/04/27 07:27:17;;;;;;;4.37;2.70;;;8.10;95.70;;;;;;4992436;28;20201;-85
2023/04/27 07:29:43;;;;;;;2.30;1.40;;;8.10;94.50;;;;;;4993161;28;20582;-85
2023/04/27 07:32:08;;;;;;;2.40;2.20;;;8.20;95.00;;;;;;4992187;28;20198;-85
2023/04/27 07:34:34;;;;;;;3.90;2.60;;;8.20;95.60;;;;;;4983211;28;20465;-85
2023/04/27 07:37:00;;;;;;;1.63;1.53;;;8.20;94.50;;;;;;4991881;28;20226;-85
2023/04/27 07:39:26;;;;;;;1.67;1.60;;;8.30;95.60;;;;;;4991968;28;20186;-84
2023/04/27 07:41:52;;;;;;;2.20;1.67;;;8.40;95.60;;;;;;4975603;28;20449;-84
2023/04/27 07:44:18;;;;;;;8.27;5.07;;;8.40;95.20;;;;;;4991670;28;20428;-85
2023/04/27 07:46:46;;;;;;;2.07;1.93;;;8.40;94.80;;;;;;4992914;28;20863;-85
2023/04/27 07:49:12;;;;;;;1.80;1.10;;;8.50;94.70;;;;;;4992769;28;20428;-85
2023/04/27 07:51:38;;;;;;;2.87;2.60;;;8.50;94.60;;;;;;4992461;28;20472;-85
2023/04/27 07:54:04;;;;;;;11.97;3.00;;;8.50;94.40;;;;;;4991404;28;20461;-86
2023/04/27 07:56:29;;;;;;;3.80;3.03;;;8.60;94.40;;;;;;4993164;28;20413;-85
2023/04/27 07:58:55;;;;;;;2.93;2.30;;;8.70;94.70;;;;;;4992244;28;20181;-85
2023/04/27 08:01:21;;;;;;;1.33;1.23;;;8.70;94.00;;;;;;4982098;28;20252;-85
2023/04/27 08:03:46;;;;;;;1.90;1.83;;;8.80;94.70;;;;;;4975406;28;20190;-85
2023/04/27 08:06:12;;;;;;;1.60;1.50;;;8.90;94.90;;;;;;4971667;28;20197;-84
2023/04/27 08:08:37;;;;;;;4.20;2.70;;;9.10;94.70;;;;;;4989724;28;20190;-85
2023/04/27 08:11:03;;;;;;;2.17;1.83;;;9.10;93.30;;;;;;4975575;28;20273;-84
2023/04/27 08:13:29;;;;;;;2.77;1.87;;;9.10;93.70;;;;;;4992483;28;20678;-85
2023/04/27 08:15:57;;;;;;;1.67;1.40;;;9.10;93.40;;;;;;4993870;28;20174;-84
2023/04/27 08:18:23;;;;;;;4.97;2.27;;;9.20;93.90;;;;;;4992670;28;20539;-82
2023/04/27 08:20:48;;;;;;;2.60;2.40;;;9.30;93.60;;;;;;4992341;28;21072;-83
2023/04/27 08:23:14;;;;;;;1.93;1.20;;;9.40;92.20;;;;;;4992778;28;20449;-84
2023/04/27 08:25:40;;;;;;;1.47;1.40;;;9.50;92.20;;;;;;4992225;28;20266;-84
2023/04/27 08:28:05;;;;;;;3.73;3.43;;;9.60;92.30;;;;;;4992330;28;20189;-86
2023/04/27 08:30:31;;;;;;;6.53;5.37;;;9.50;91.50;;;;;;4974481;28;20178;-84
2023/04/27 08:32:56;;;;;;;8.43;2.13;;;9.60;91.90;;;;;;4996643;28;20706;-85
2023/04/27 08:35:22;;;;;;;2.20;1.70;;;9.60;92.00;;;;;;4991640;28;20173;-85
2023/04/27 08:37:47;;;;;;;10.13;5.80;;;9.60;91.60;;;;;;4991756;28;20173;-84
2023/04/27 08:40:13;;;;;;;3.93;2.73;;;9.60;91.30;;;;;;4990597;28;20193;-84
2023/04/27 08:42:52;;;;;;;6.43;3.73;;;9.60;91.50;;;;;;4990257;28;20205;-84
2023/04/27 08:45:18;;;;;;;2.60;1.73;;;9.70;91.60;;;;;;4978594;28;20182;-82
2023/04/27 08:47:44;;;;;;;2.07;1.93;;;9.80;91.30;;;;;;4973925;28;20425;-83
2023/04/27 08:50:11;;;;;;;2.83;2.30;;;9.90;90.80;;;;;;4985203;28;20520;-82
2023/04/27 08:52:37;;;;;;;2.90;2.70;;;10.00;90.50;;;;;;4991492;28;20300;-84
2023/04/27 08:55:03;;;;;;;2.43;2.23;;;10.10;90.10;;;;;;4990032;28;20962;-85
2023/04/27 08:57:29;;;;;;;2.70;2.50;;;10.10;90.10;;;;;;4974024;28;20232;-84
2023/04/27 08:59:59;;;;;;;3.23;2.07;;;10.10;90.20;;;;;;4974180;28;20425;-85
2023/04/27 09:02:28;;;;;;;5.90;2.23;;;10.10;89.50;;;;;;4989974;28;20220;-84
2023/04/27 09:04:54;;;;;;;1.63;1.53;;;10.20;89.90;;;;;;4990070;28;20433;-85
2023/04/27 09:07:20;;;;;;;2.70;2.43;;;10.40;89.40;;;;;;4990370;28;20921;-85
2023/04/27 09:09:47;;;;;;;1.40;1.30;;;10.50;88.60;;;;;;4991579;28;20436;-85
2023/04/27 09:12:14;;;;;;;3.53;2.70;;;10.50;87.70;;;;;;4991223;28;20201;-82
2023/04/27 09:14:40;;;;;;;2.10;1.97;;;10.60;88.10;;;;;;4973944;28;20476;-84
2023/04/27 09:17:06;;;;;;;3.03;1.33;;;10.60;87.60;;;;;;4983157;28;20487;-84
2023/04/27 09:19:31;;;;;;;2.33;2.03;;;10.60;86.40;;;;;;4981283;28;20457;-85
2023/04/27 09:22:07;;;;;;;10.83;5.30;;;10.50;86.50;;;;;;4981685;28;20205;-85
2023/04/27 09:24:33;;;;;;;4.23;2.77;;;10.60;86.40;;;;;;4979726;28;20255;-85
2023/04/27 09:27:00;;;;;;;1.80;1.70;;;10.80;86.40;;;;;;4973742;28;20487;-84
2023/04/27 09:29:36;;;;;;;3.47;2.83;;;11.10;86.20;;;;;;4973229;28;20440;-84
2023/04/27 09:32:13;;;;;;;12.77;3.47;;;11.40;87.10;;;;;;4973446;28;20456;-84
2023/04/27 09:34:40;;;;;;;4.27;2.93;;;11.70;85.00;;;;;;4973584;28;20519;-84
2023/04/27 09:37:06;;;;;;;5.10;2.60;;;11.60;82.30;;;;;;4989650;28;20429;-85
2023/04/27 09:39:32;;;;;;;4.70;2.30;;;11.40;83.80;;;;;;4989359;28;20432;-84
2023/04/27 09:41:58;;;;;;;4.90;3.30;;;11.00;84.90;;;;;;4989564;28;20449;-82
2023/04/27 09:44:24;;;;;;;6.57;2.17;;;11.00;85.50;;;;;;4989716;28;20424;-83
2023/04/27 09:46:51;;;;;;;12.30;3.27;;;11.10;86.10;;;;;;4989551;28;20192;-84
2023/04/27 09:49:18;;;;;;;4.70;2.53;;;11.10;85.30;;;;;;4981487;28;20436;-82
2023/04/27 09:51:44;;;;;;;3.00;2.33;;;11.20;86.00;;;;;;4969978;28;20477;-85
2023/04/27 09:54:12;;;;;;;4.60;2.67;;;11.20;85.50;;;;;;4986554;28;20477;-85
2023/04/27 09:56:54;;;;;;;5.03;3.50;;;11.20;84.80;;;;;;4970219;28;20197;-84
2023/04/27 09:59:58;;;;;;;8.80;3.67;;;11.20;84.20;;;;;;4970488;28;20436;-84
2023/04/27 10:02:27;;;;;;;5.50;3.40;;;11.10;83.90;;;;;;4957761;28;21011;-84
2023/04/27 10:05:20;;;;;;;6.93;3.17;;;11.00;84.70;;;;;;4979121;28;20998;-84
2023/04/27 10:07:46;;;;;;;2.53;2.33;;;10.90;84.70;;;;;;4970466;28;20586;-83
2023/04/27 10:10:17;;;;;;;3.63;2.40;;;10.80;85.50;;;;;;4971759;28;20482;-84
2023/04/27 10:12:42;;;;;;;1.60;1.50;;;10.60;85.70;;;;;;4970141;28;20496;-84
2023/04/27 10:15:16;;;;;;;10.40;4.47;;;10.60;85.00;;;;;;4971457;28;20481;-83
2023/04/27 10:17:53;;;;;;;5.03;2.67;;;10.80;85.50;;;;;;4971215;28;20193;-82
2023/04/27 10:20:29;;;;;;;2.60;2.07;;;11.10;85.10;;;;;;4978128;28;20430;-83
2023/04/27 10:22:55;;;;;;;5.37;2.37;;;11.10;83.80;;;;;;4963746;28;20980;-82
2023/04/27 10:25:24;;;;;;;3.73;2.90;;;11.00;82.30;;;;;;4986602;28;20445;-84
2023/04/27 10:28:00;;;;;;;3.00;2.00;;;10.80;81.80;;;;;;4978038;28;20190;-85
2023/04/27 10:30:30;;;;;;;3.97;3.77;;;10.80;82.90;;;;;;4971209;28;20409;-84
2023/04/27 10:32:58;;;;;;;3.00;1.80;;;10.70;83.80;;;;;;4971258;28;20820;-85
2023/04/27 10:35:37;;;;;;;5.13;3.70;;;10.70;83.70;;;;;;4977880;28;20473;-85
2023/04/27 10:38:22;;;;;;;3.03;2.87;;;10.80;83.70;;;;;;4964694;28;20425;-85
2023/04/27 10:41:04;;;;;;;3.87;3.03;;;11.10;83.80;;;;;;4977777;28;20429;-85
2023/04/27 10:43:34;;;;;;;5.23;3.73;;;11.10;82.30;;;;;;4970101;28;20488;-81
2023/04/27 10:46:13;;;;;;;10.40;3.77;;;11.20;83.20;;;;;;4974570;28;20522;-83
2023/04/27 10:48:40;;;;;;;7.30;2.63;;;11.30;83.00;;;;;;4980232;28;20417;-84
2023/04/27 10:51:06;;;;;;;1.80;1.73;;;11.30;81.80;;;;;;4977045;28;20763;-84
2023/04/27 10:53:36;;;;;;;6.60;3.70;;;11.40;82.60;;;;;;4976228;28;20469;-84
2023/04/27 10:56:04;;;;;;;4.07;2.73;;;11.80;83.30;;;;;;4994354;28;20178;-82
2023/04/27 10:58:29;;;;;;;4.20;2.70;;;12.20;82.90;;;;;;4992706;28;20421;-85
2023/04/27 11:00:55;;;;;;;6.07;3.03;;;12.20;80.80;;;;;;4975922;28;20856;-85
2023/04/27 11:03:22;;;;;;;5.23;4.17;;;12.00;80.40;;;;;;4993784;28;20265;-84
2023/04/27 11:05:57;;;;;;;5.60;4.10;;;11.90;81.30;;;;;;4993287;28;20421;-85
2023/04/27 11:08:23;;;;;;;4.20;2.80;;;11.70;80.90;;;;;;4986597;28;20487;-85
2023/04/27 11:10:50;;;;;;;11.80;3.60;;;11.50;81.60;;;;;;4993521;28;20421;-85
2023/04/27 11:13:16;;;;;;;3.30;2.00;;;11.30;83.00;;;;;;4984083;28;20529;-84
2023/04/27 11:15:50;;;;;;;5.67;3.60;;;11.20;83.20;;;;;;4993354;28;20409;-85
2023/04/27 11:18:17;;;;;;;2.10;1.97;;;11.00;83.20;;;;;;4983669;28;20428;-85
2023/04/27 11:20:53;;;;;;;3.03;1.47;;;10.90;83.60;;;;;;4975662;28;20436;-85
2023/04/27 11:23:27;;;;;;;3.40;2.47;;;10.90;82.90;;;;;;4991822;28;20508;-84
2023/04/27 11:25:54;;;;;;;2.63;2.30;;;10.80;83.30;;;;;;4993173;28;20420;-85
2023/04/27 11:28:20;;;;;;;12.30;3.07;;;10.80;82.90;;;;;;4975438;28;20946;-85
2023/04/27 11:30:48;;;;;;;5.10;2.67;;;11.00;82.70;;;;;;4967457;28;20429;-84
2023/04/27 11:33:14;;;;;;;3.43;2.57;;;11.00;82.60;;;;;;4991569;28;20855;-84
2023/04/27 11:35:41;;;;;;;2.80;2.17;;;11.20;83.80;;;;;;4992718;28;20417;-84
2023/04/27 11:38:14;;;;;;;6.23;2.50;;;11.70;82.80;;;;;;4991496;28;20504;-85
2023/04/27 11:40:40;;;;;;;4.30;4.03;;;12.20;83.30;;;;;;4991546;28;20440;-85
2023/04/27 11:43:11;;;;;;;6.77;4.70;;;12.50;82.30;;;;;;4991417;28;20985;-84
2023/04/27 11:45:41;;;;;;;3.67;2.70;;;12.50;79.40;;;;;;4975614;28;20428;-84
2023/04/27 11:48:15;;;;;;;17.47;2.97;;;12.30;79.90;;;;;;4992645;28;20507;-83
2023/04/27 11:50:45;;;;;;;11.63;4.17;;;12.10;79.40;;;;;;4967486;28;20957;-84
2023/04/27 11:53:10;;;;;;;4.10;2.13;;;12.00;79.40;;;;;;4990880;28;21035;-85
2023/04/27 11:55:40;;;;;;;2.83;2.33;;;11.80;79.60;;;;;;4990817;28;20421;-84
2023/04/27 11:58:11;;;;;;;5.10;2.20;;;11.80;79.40;;;;;;4991578;28;20176;-85
2023/04/27 12:00:37;;;;;;;1.93;1.83;;;11.80;79.60;;;;;;4992453;28;20425;-85
2023/04/27 12:03:02;;;;;;;2.20;2.10;;;11.80;80.10;;;;;;4991135;28;20516;-85
2023/04/27 12:05:28;;;;;;;2.27;1.77;;;11.80;80.00;;;;;;4978715;28;20597;-84
2023/04/27 12:07:53;;;;;;;12.57;2.33;;;11.80;80.20;;;;;;4975063;28;20265;-83
2023/04/27 12:10:19;;;;;;;2.93;2.30;;;11.80;80.40;;;;;;4983254;28;20225;-85
2023/04/27 12:12:44;;;;;;;5.10;2.87;;;11.80;80.20;;;;;;4974631;28;20198;-85
2023/04/27 12:15:11;;;;;;;7.30;3.60;;;11.80;79.30;;;;;;4990943;28;20425;-85
2023/04/27 12:17:37;;;;;;;4.37;3.10;;;12.00;79.60;;;;;;4982881;28;20421;-85
2023/04/27 12:20:04;;;;;;;3.23;2.17;;;12.10;78.90;;;;;;4974978;28;20352;-84
2023/04/27 12:22:29;;;;;;;4.60;2.03;;;12.30;78.30;;;;;;4974506;28;20437;-85
2023/04/27 12:24:55;;;;;;;3.40;3.20;;;12.60;79.10;;;;;;4982899;28;20423;-85
2023/04/27 12:27:20;;;;;;;2.40;2.20;;;13.00;77.80;;;;;;4992601;28;20550;-85
2023/04/27 12:29:46;;;;;;;2.50;2.10;;;13.20;76.30;;;;;;4991725;28;20193;-85
2023/04/27 12:32:11;;;;;;;12.03;3.30;;;13.20;75.80;;;;;;4982687;28;20344;-85
2023/04/27 12:34:38;;;;;;;3.27;2.00;;;12.70;75.30;;;;;;4990731;28;20204;-85
2023/04/27 12:37:04;;;;;;;5.87;2.90;;;12.50;75.60;;;;;;4970874;28;20269;-85
2023/04/27 12:39:30;;;;;;;10.33;3.17;;;12.50;76.20;;;;;;4979488;28;20421;-84
2023/04/27 12:41:57;;;;;;;6.03;1.90;;;12.70;76.00;;;;;;4992154;28;20600;-84
2023/04/27 12:44:22;;;;;;;7.90;3.93;;;12.80;76.20;;;;;;4977736;28;20625;-85
2023/04/27 12:46:48;;;;;;;2.00;1.83;;;12.90;76.30;;;;;;4974602;28;20651;-86
2023/04/27 12:49:13;;;;;;;2.30;2.10;;;13.10;76.90;;;;;;4985270;28;20249;-85
2023/04/27 12:51:39;;;;;;;3.00;2.83;;;13.20;75.50;;;;;;4986366;28;20230;-87